sensor_id;sensor_type;location;lat;lon;timestamp;P1;P2;P0
74333;PMS5003;62753;40.394;-80.022;2023-04-03T00:00:17;2;2;
74333;PMS5003;62753;40.394;-80.022;2023-04-03T00:02:42;3;2;
74333;PMS5003;62753;40.394;-80.022;2023-04-03T00:05:07;2;2;
74333;PMS5003;62753;40.394;-80.022;2023-04-03T00:07:33;3;3;
74333;PMS5003;62753;40.394;-80.022;2023-04-03T00:09:58;4;4;
74333;PMS5003;62753;40.394;-80.022;2023-04-03T00:12:23;1;1;
74333;PMS5003;62753;40.394;-80.022;2023-04-03T00:14:49;4;4;
74333;PMS5003;62753;40.394;-80.022;2023-04-03T00:17:14;5;4;
74333;PMS5003;62753;40.394;-80.022;2023-04-03T00:19:40;5;4;
74333;PMS5003;62753;40.394;-80.022;2023-04-03T00:22:05;4;4;
74333;PMS5003;62753;40.394;-80.022;2023-04-03T00:24:31;3;3;
74333;PMS5003;62753;40.394;-80.022;2023-04-03T00:26:56;3;3;
74333;PMS5003;62753;40.394;-80.022;2023-04-03T00:29:21;2;2;
74333;PMS5003;62753;40.394;-80.022;2023-04-03T00:31:47;4;4;
74333;PMS5003;62753;40.394;-80.022;2023-04-03T00:34:12;3;3;
74333;PMS5003;62753;40.394;-80.022;2023-04-03T00:36:38;6;5;
74333;PMS5003;62753;40.394;-80.022;2023-04-03T00:39:03;6;4;
74333;PMS5003;62753;40.394;-80.022;2023-04-03T00:41:29;7;6;
74333;PMS5003;62753;40.394;-80.022;2023-04-03T00:43:54;4;4;
74333;PMS5003;62753;40.394;-80.022;2023-04-03T00:46:19;5;4;
74333;PMS5003;62753;40.394;-80.022;2023-04-03T00:48:45;6;6;
74333;PMS5003;62753;40.394;-80.022;2023-04-03T00:51:11;4;4;
74333;PMS5003;62753;40.394;-80.022;2023-04-03T00:53:37;5;5;
74333;PMS5003;62753;40.394;-80.022;2023-04-03T00:56:01;6;6;
74333;PMS5003;62753;40.394;-80.022;2023-04-03T00:58:28;7;7;
74333;PMS5003;62753;40.394;-80.022;2023-04-03T01:00:53;7;4;
74333;PMS5003;62753;40.394;-80.022;2023-04-03T01:03:17;6;6;
74333;PMS5003;62753;40.394;-80.022;2023-04-03T01:05:43;4;4;
74333;PMS5003;62753;40.394;-80.022;2023-04-03T01:08:08;6;6;
74333;PMS5003;62753;40.394;-80.022;2023-04-03T01:10:33;11;7;
74333;PMS5003;62753;40.394;-80.022;2023-04-03T01:12:59;6;5;
74333;PMS5003;62753;40.394;-80.022;2023-04-03T01:15:26;6;5;
74333;PMS5003;62753;40.394;-80.022;2023-04-03T01:17:50;7;6;
74333;PMS5003;62753;40.394;-80.022;2023-04-03T01:22:41;7;6;
74333;PMS5003;62753;40.394;-80.022;2023-04-03T01:25:11;8;6;
74333;PMS5003;62753;40.394;-80.022;2023-04-03T01:27:31;9;9;
74333;PMS5003;62753;40.394;-80.022;2023-04-03T01:29:57;8;8;
74333;PMS5003;62753;40.394;-80.022;2023-04-03T01:32:22;7;7;
74333;PMS5003;62753;40.394;-80.022;2023-04-03T01:34:47;12;10;
74333;PMS5003;62753;40.394;-80.022;2023-04-03T01:37:12;10;8;
74333;PMS5003;62753;40.394;-80.022;2023-04-03T01:39:38;8;6;
74333;PMS5003;62753;40.394;-80.022;2023-04-03T01:42:04;18;12;
74333;PMS5003;62753;40.394;-80.022;2023-04-03T01:44:29;12;10;
74333;PMS5003;62753;40.394;-80.022;2023-04-03T01:46:54;11;10;
74333;PMS5003;62753;40.394;-80.022;2023-04-03T01:49:20;12;11;
74333;PMS5003;62753;40.394;-80.022;2023-04-03T01:51:45;9;8;
74333;PMS5003;62753;40.394;-80.022;2023-04-03T01:54:11;8;7;
74333;PMS5003;62753;40.394;-80.022;2023-04-03T01:56:36;6;6;
74333;PMS5003;62753;40.394;-80.022;2023-04-03T01:59:02;7;7;
74333;PMS5003;62753;40.394;-80.022;2023-04-03T02:01:28;5;5;
74333;PMS5003;62753;40.394;-80.022;2023-04-03T02:03:53;6;6;
74333;PMS5003;62753;40.394;-80.022;2023-04-03T02:06:18;13;8;
74333;PMS5003;62753;40.394;-80.022;2023-04-03T02:08:44;10;8;
74333;PMS5003;62753;40.394;-80.022;2023-04-03T02:11:09;9;6;
74333;PMS5003;62753;40.394;-80.022;2023-04-03T02:13:35;7;7;
74333;PMS5003;62753;40.394;-80.022;2023-04-03T02:16:05;9;8;
74333;PMS5003;62753;40.394;-80.022;2023-04-03T02:18:26;9;8;
74333;PMS5003;62753;40.394;-80.022;2023-04-03T02:20:51;8;8;
74333;PMS5003;62753;40.394;-80.022;2023-04-03T02:23:17;7;5;
74333;PMS5003;62753;40.394;-80.022;2023-04-03T02:25:42;8;7;
74333;PMS5003;62753;40.394;-80.022;2023-04-03T02:28:08;6;6;
74333;PMS5003;62753;40.394;-80.022;2023-04-03T02:30:33;9;8;
74333;PMS5003;62753;40.394;-80.022;2023-04-03T02:32:59;7;6;
74333;PMS5003;62753;40.394;-80.022;2023-04-03T02:35:24;7;7;
74333;PMS5003;62753;40.394;-80.022;2023-04-03T02:37:49;5;5;
74333;PMS5003;62753;40.394;-80.022;2023-04-03T02:40:15;9;9;
74333;PMS5003;62753;40.394;-80.022;2023-04-03T02:42:41;6;6;
74333;PMS5003;62753;40.394;-80.022;2023-04-03T02:45:07;8;7;
74333;PMS5003;62753;40.394;-80.022;2023-04-03T02:47:32;7;6;
74333;PMS5003;62753;40.394;-80.022;2023-04-03T02:49:57;8;8;
74333;PMS5003;62753;40.394;-80.022;2023-04-03T02:52:23;8;7;
74333;PMS5003;62753;40.394;-80.022;2023-04-03T02:54:48;10;8;
74333;PMS5003;62753;40.394;-80.022;2023-04-03T02:57:13;11;9;
74333;PMS5003;62753;40.394;-80.022;2023-04-03T02:59:39;10;9;
74333;PMS5003;62753;40.394;-80.022;2023-04-03T03:02:04;11;10;
74333;PMS5003;62753;40.394;-80.022;2023-04-03T03:04:29;11;11;
74333;PMS5003;62753;40.394;-80.022;2023-04-03T03:06:55;11;11;
74333;PMS5003;62753;40.394;-80.022;2023-04-03T03:09:26;11;9;
74333;PMS5003;62753;40.394;-80.022;2023-04-03T03:11:46;9;9;
74333;PMS5003;62753;40.394;-80.022;2023-04-03T03:14:11;12;11;
74333;PMS5003;62753;40.394;-80.022;2023-04-03T03:16:37;10;10;
74333;PMS5003;62753;40.394;-80.022;2023-04-03T03:19:02;11;9;
74333;PMS5003;62753;40.394;-80.022;2023-04-03T03:21:28;12;8;
74333;PMS5003;62753;40.394;-80.022;2023-04-03T03:23:53;8;8;
74333;PMS5003;62753;40.394;-80.022;2023-04-03T03:26:19;10;9;
74333;PMS5003;62753;40.394;-80.022;2023-04-03T03:28:44;8;8;
74333;PMS5003;62753;40.394;-80.022;2023-04-03T03:31:10;10;10;
74333;PMS5003;62753;40.394;-80.022;2023-04-03T03:33:35;10;9;
74333;PMS5003;62753;40.394;-80.022;2023-04-03T03:36:01;10;9;
74333;PMS5003;62753;40.394;-80.022;2023-04-03T03:38:26;10;10;
74333;PMS5003;62753;40.394;-80.022;2023-04-03T03:40:51;8;8;
74333;PMS5003;62753;40.394;-80.022;2023-04-03T03:43:18;10;10;
74333;PMS5003;62753;40.394;-80.022;2023-04-03T03:45:42;9;9;
74333;PMS5003;62753;40.394;-80.022;2023-04-03T03:48:08;10;9;
74333;PMS5003;62753;40.394;-80.022;2023-04-03T03:50:33;8;8;
74333;PMS5003;62753;40.394;-80.022;2023-04-03T03:52:59;9;8;
74333;PMS5003;62753;40.394;-80.022;2023-04-03T03:55:24;11;10;
74333;PMS5003;62753;40.394;-80.022;2023-04-03T03:57:50;9;9;
74333;PMS5003;62753;40.394;-80.022;2023-04-03T04:00:15;10;10;
74333;PMS5003;62753;40.394;-80.022;2023-04-03T04:02:41;11;10;
74333;PMS5003;62753;40.394;-80.022;2023-04-03T04:05:06;12;10;
74333;PMS5003;62753;40.394;-80.022;2023-04-03T04:07:32;11;10;
74333;PMS5003;62753;40.394;-80.022;2023-04-03T04:09:57;9;9;
74333;PMS5003;62753;40.394;-80.022;2023-04-03T04:12:23;11;10;
74333;PMS5003;62753;40.394;-80.022;2023-04-03T04:14:48;10;9;
74333;PMS5003;62753;40.394;-80.022;2023-04-03T04:17:14;10;10;
74333;PMS5003;62753;40.394;-80.022;2023-04-03T04:19:39;10;10;
74333;PMS5003;62753;40.394;-80.022;2023-04-03T04:22:05;11;10;
74333;PMS5003;62753;40.394;-80.022;2023-04-03T04:24:30;9;8;
74333;PMS5003;62753;40.394;-80.022;2023-04-03T04:26:56;10;10;
74333;PMS5003;62753;40.394;-80.022;2023-04-03T04:29:21;13;12;
74333;PMS5003;62753;40.394;-80.022;2023-04-03T04:31:47;11;9;
74333;PMS5003;62753;40.394;-80.022;2023-04-03T04:34:12;12;11;
74333;PMS5003;62753;40.394;-80.022;2023-04-03T04:36:37;12;11;
74333;PMS5003;62753;40.394;-80.022;2023-04-03T04:39:03;10;9;
74333;PMS5003;62753;40.394;-80.022;2023-04-03T04:41:28;10;9;
74333;PMS5003;62753;40.394;-80.022;2023-04-03T04:43:54;12;10;
74333;PMS5003;62753;40.394;-80.022;2023-04-03T04:46:19;12;11;
74333;PMS5003;62753;40.394;-80.022;2023-04-03T04:48:45;10;9;
74333;PMS5003;62753;40.394;-80.022;2023-04-03T04:51:10;11;11;
74333;PMS5003;62753;40.394;-80.022;2023-04-03T04:53:36;11;9;
74333;PMS5003;62753;40.394;-80.022;2023-04-03T04:56:01;12;11;
74333;PMS5003;62753;40.394;-80.022;2023-04-03T04:58:26;10;10;
74333;PMS5003;62753;40.394;-80.022;2023-04-03T05:03:17;12;11;
74333;PMS5003;62753;40.394;-80.022;2023-04-03T05:05:43;12;12;
74333;PMS5003;62753;40.394;-80.022;2023-04-03T05:08:09;10;8;
74333;PMS5003;62753;40.394;-80.022;2023-04-03T05:10:34;12;11;
74333;PMS5003;62753;40.394;-80.022;2023-04-03T05:13:00;12;10;
74333;PMS5003;62753;40.394;-80.022;2023-04-03T05:15:25;12;11;
74333;PMS5003;62753;40.394;-80.022;2023-04-03T05:17:51;10;9;
74333;PMS5003;62753;40.394;-80.022;2023-04-03T05:20:16;12;10;
74333;PMS5003;62753;40.394;-80.022;2023-04-03T05:22:42;11;10;
74333;PMS5003;62753;40.394;-80.022;2023-04-03T05:25:08;13;11;
74333;PMS5003;62753;40.394;-80.022;2023-04-03T05:27:33;8;8;
74333;PMS5003;62753;40.394;-80.022;2023-04-03T05:29:58;12;10;
74333;PMS5003;62753;40.394;-80.022;2023-04-03T05:32:24;10;9;
74333;PMS5003;62753;40.394;-80.022;2023-04-03T05:34:49;12;11;
74333;PMS5003;62753;40.394;-80.022;2023-04-03T05:37:15;12;12;
74333;PMS5003;62753;40.394;-80.022;2023-04-03T05:39:40;11;11;
74333;PMS5003;62753;40.394;-80.022;2023-04-03T05:42:06;12;11;
74333;PMS5003;62753;40.394;-80.022;2023-04-03T05:44:31;11;10;
74333;PMS5003;62753;40.394;-80.022;2023-04-03T05:46:57;11;10;
74333;PMS5003;62753;40.394;-80.022;2023-04-03T05:49:23;8;8;
74333;PMS5003;62753;40.394;-80.022;2023-04-03T05:51:48;10;9;
74333;PMS5003;62753;40.394;-80.022;2023-04-03T05:54:16;11;9;
74333;PMS5003;62753;40.394;-80.022;2023-04-03T05:56:39;10;9;
74333;PMS5003;62753;40.394;-80.022;2023-04-03T05:59:05;8;7;
74333;PMS5003;62753;40.394;-80.022;2023-04-03T06:01:30;9;9;
74333;PMS5003;62753;40.394;-80.022;2023-04-03T06:03:56;11;10;
74333;PMS5003;62753;40.394;-80.022;2023-04-03T06:06:22;10;9;
74333;PMS5003;62753;40.394;-80.022;2023-04-03T06:08:47;13;10;
74333;PMS5003;62753;40.394;-80.022;2023-04-03T06:11:12;11;10;
74333;PMS5003;62753;40.394;-80.022;2023-04-03T06:13:37;11;10;
74333;PMS5003;62753;40.394;-80.022;2023-04-03T06:16:04;10;10;
74333;PMS5003;62753;40.394;-80.022;2023-04-03T06:18:29;13;11;
74333;PMS5003;62753;40.394;-80.022;2023-04-03T06:20:54;10;9;
74333;PMS5003;62753;40.394;-80.022;2023-04-03T06:23:20;11;10;
74333;PMS5003;62753;40.394;-80.022;2023-04-03T06:25:45;9;8;
74333;PMS5003;62753;40.394;-80.022;2023-04-03T06:28:11;12;11;
74333;PMS5003;62753;40.394;-80.022;2023-04-03T06:30:37;9;9;
74333;PMS5003;62753;40.394;-80.022;2023-04-03T06:33:02;12;11;
74333;PMS5003;62753;40.394;-80.022;2023-04-03T06:35:28;9;9;
74333;PMS5003;62753;40.394;-80.022;2023-04-03T06:37:53;14;11;
74333;PMS5003;62753;40.394;-80.022;2023-04-03T06:40:19;10;10;
74333;PMS5003;62753;40.394;-80.022;2023-04-03T06:42:44;12;11;
74333;PMS5003;62753;40.394;-80.022;2023-04-03T06:45:10;12;10;
74333;PMS5003;62753;40.394;-80.022;2023-04-03T06:47:35;10;10;
74333;PMS5003;62753;40.394;-80.022;2023-04-03T06:50:00;11;11;
74333;PMS5003;62753;40.394;-80.022;2023-04-03T06:52:26;15;11;
74333;PMS5003;62753;40.394;-80.022;2023-04-03T06:54:51;10;10;
74333;PMS5003;62753;40.394;-80.022;2023-04-03T06:57:17;11;11;
74333;PMS5003;62753;40.394;-80.022;2023-04-03T06:59:43;8;8;
74333;PMS5003;62753;40.394;-80.022;2023-04-03T07:02:09;14;12;
74333;PMS5003;62753;40.394;-80.022;2023-04-03T07:04:34;11;11;
74333;PMS5003;62753;40.394;-80.022;2023-04-03T07:07:00;14;12;
74333;PMS5003;62753;40.394;-80.022;2023-04-03T07:09:25;10;10;
74333;PMS5003;62753;40.394;-80.022;2023-04-03T07:11:50;12;10;
74333;PMS5003;62753;40.394;-80.022;2023-04-03T07:14:16;12;11;
74333;PMS5003;62753;40.394;-80.022;2023-04-03T07:16:41;17;12;
74333;PMS5003;62753;40.394;-80.022;2023-04-03T07:19:07;13;11;
74333;PMS5003;62753;40.394;-80.022;2023-04-03T07:21:32;17;14;
74333;PMS5003;62753;40.394;-80.022;2023-04-03T07:23:57;13;13;
74333;PMS5003;62753;40.394;-80.022;2023-04-03T07:26:23;14;13;
74333;PMS5003;62753;40.394;-80.022;2023-04-03T07:28:49;12;11;
74333;PMS5003;62753;40.394;-80.022;2023-04-03T07:31:15;10;9;
74333;PMS5003;62753;40.394;-80.022;2023-04-03T07:33:40;12;12;
74333;PMS5003;62753;40.394;-80.022;2023-04-03T07:36:06;11;9;
74333;PMS5003;62753;40.394;-80.022;2023-04-03T07:38:31;15;12;
74333;PMS5003;62753;40.394;-80.022;2023-04-03T07:40:56;22;18;
74333;PMS5003;62753;40.394;-80.022;2023-04-03T07:43:22;16;12;
74333;PMS5003;62753;40.394;-80.022;2023-04-03T07:45:48;15;12;
74333;PMS5003;62753;40.394;-80.022;2023-04-03T07:48:13;13;13;
74333;PMS5003;62753;40.394;-80.022;2023-04-03T07:50:39;13;13;
74333;PMS5003;62753;40.394;-80.022;2023-04-03T07:53:04;11;11;
74333;PMS5003;62753;40.394;-80.022;2023-04-03T07:55:31;12;11;
74333;PMS5003;62753;40.394;-80.022;2023-04-03T07:57:55;14;11;
74333;PMS5003;62753;40.394;-80.022;2023-04-03T08:00:21;14;12;
74333;PMS5003;62753;40.394;-80.022;2023-04-03T08:02:47;15;12;
74333;PMS5003;62753;40.394;-80.022;2023-04-03T08:05:12;10;10;
74333;PMS5003;62753;40.394;-80.022;2023-04-03T08:07:38;14;11;
74333;PMS5003;62753;40.394;-80.022;2023-04-03T08:10:03;11;11;
74333;PMS5003;62753;40.394;-80.022;2023-04-03T08:12:29;12;10;
74333;PMS5003;62753;40.394;-80.022;2023-04-03T08:14:54;12;10;
74333;PMS5003;62753;40.394;-80.022;2023-04-03T08:17:20;15;12;
74333;PMS5003;62753;40.394;-80.022;2023-04-03T08:19:45;9;8;
74333;PMS5003;62753;40.394;-80.022;2023-04-03T08:22:10;9;9;
74333;PMS5003;62753;40.394;-80.022;2023-04-03T08:24:36;11;10;
74333;PMS5003;62753;40.394;-80.022;2023-04-03T08:27:02;14;10;
74333;PMS5003;62753;40.394;-80.022;2023-04-03T08:29:27;11;11;
74333;PMS5003;62753;40.394;-80.022;2023-04-03T08:31:52;14;12;
74333;PMS5003;62753;40.394;-80.022;2023-04-03T08:34:18;14;11;
74333;PMS5003;62753;40.394;-80.022;2023-04-03T08:36:43;12;12;
74333;PMS5003;62753;40.394;-80.022;2023-04-03T08:39:09;10;10;
74333;PMS5003;62753;40.394;-80.022;2023-04-03T08:41:35;9;9;
74333;PMS5003;62753;40.394;-80.022;2023-04-03T08:44:02;11;11;
74333;PMS5003;62753;40.394;-80.022;2023-04-03T08:46:28;10;10;
74333;PMS5003;62753;40.394;-80.022;2023-04-03T08:48:51;12;12;
74333;PMS5003;62753;40.394;-80.022;2023-04-03T08:51:17;12;10;
74333;PMS5003;62753;40.394;-80.022;2023-04-03T08:53:43;16;12;
74333;PMS5003;62753;40.394;-80.022;2023-04-03T08:56:08;9;9;
74333;PMS5003;62753;40.394;-80.022;2023-04-03T08:58:33;11;11;
74333;PMS5003;62753;40.394;-80.022;2023-04-03T09:01:00;13;12;
74333;PMS5003;62753;40.394;-80.022;2023-04-03T09:03:24;11;10;
74333;PMS5003;62753;40.394;-80.022;2023-04-03T09:05:50;11;11;
74333;PMS5003;62753;40.394;-80.022;2023-04-03T09:08:21;9;7;
74333;PMS5003;62753;40.394;-80.022;2023-04-03T09:10:40;15;13;
74333;PMS5003;62753;40.394;-80.022;2023-04-03T09:13:08;11;11;
74333;PMS5003;62753;40.394;-80.022;2023-04-03T09:15:32;10;9;
74333;PMS5003;62753;40.394;-80.022;2023-04-03T09:17:59;15;9;
74333;PMS5003;62753;40.394;-80.022;2023-04-03T09:20:24;20;14;
74333;PMS5003;62753;40.394;-80.022;2023-04-03T09:22:48;10;10;
74333;PMS5003;62753;40.394;-80.022;2023-04-03T09:25:15;10;10;
74333;PMS5003;62753;40.394;-80.022;2023-04-03T09:27:39;11;10;
74333;PMS5003;62753;40.394;-80.022;2023-04-03T09:30:05;11;9;
74333;PMS5003;62753;40.394;-80.022;2023-04-03T09:32:31;13;12;
74333;PMS5003;62753;40.394;-80.022;2023-04-03T09:34:57;12;12;
74333;PMS5003;62753;40.394;-80.022;2023-04-03T09:39:49;10;9;
74333;PMS5003;62753;40.394;-80.022;2023-04-03T09:42:14;14;13;
74333;PMS5003;62753;40.394;-80.022;2023-04-03T09:44:38;9;8;
74333;PMS5003;62753;40.394;-80.022;2023-04-03T09:49:29;11;11;
74333;PMS5003;62753;40.394;-80.022;2023-04-03T09:51:54;11;11;
74333;PMS5003;62753;40.394;-80.022;2023-04-03T09:56:48;10;10;
74333;PMS5003;62753;40.394;-80.022;2023-04-03T09:59:13;9;8;
74333;PMS5003;62753;40.394;-80.022;2023-04-03T10:01:37;6;6;
74333;PMS5003;62753;40.394;-80.022;2023-04-03T10:04:04;11;11;
74333;PMS5003;62753;40.394;-80.022;2023-04-03T10:06:29;11;10;
74333;PMS5003;62753;40.394;-80.022;2023-04-03T10:11:18;9;8;
74333;PMS5003;62753;40.394;-80.022;2023-04-03T10:13:49;10;9;
74333;PMS5003;62753;40.394;-80.022;2023-04-03T10:16:11;12;11;
74333;PMS5003;62753;40.394;-80.022;2023-04-03T10:18:37;9;9;
74333;PMS5003;62753;40.394;-80.022;2023-04-03T10:21:02;10;10;
74333;PMS5003;62753;40.394;-80.022;2023-04-03T10:23:26;10;10;
74333;PMS5003;62753;40.394;-80.022;2023-04-03T10:25:55;10;8;
74333;PMS5003;62753;40.394;-80.022;2023-04-03T10:28:18;10;9;
74333;PMS5003;62753;40.394;-80.022;2023-04-03T10:30:45;10;10;
74333;PMS5003;62753;40.394;-80.022;2023-04-03T10:33:13;11;11;
74333;PMS5003;62753;40.394;-80.022;2023-04-03T10:35:37;11;10;
74333;PMS5003;62753;40.394;-80.022;2023-04-03T10:38:01;9;8;
74333;PMS5003;62753;40.394;-80.022;2023-04-03T10:40:28;9;8;
74333;PMS5003;62753;40.394;-80.022;2023-04-03T10:42:50;10;10;
74333;PMS5003;62753;40.394;-80.022;2023-04-03T10:45:19;10;8;
74333;PMS5003;62753;40.394;-80.022;2023-04-03T10:47:43;8;8;
74333;PMS5003;62753;40.394;-80.022;2023-04-03T10:50:12;9;7;
74333;PMS5003;62753;40.394;-80.022;2023-04-03T10:52:34;8;8;
74333;PMS5003;62753;40.394;-80.022;2023-04-03T10:55:00;9;9;
74333;PMS5003;62753;40.394;-80.022;2023-04-03T10:57:23;11;10;
74333;PMS5003;62753;40.394;-80.022;2023-04-03T10:59:49;9;9;
74333;PMS5003;62753;40.394;-80.022;2023-04-03T11:02:16;10;8;
74333;PMS5003;62753;40.394;-80.022;2023-04-03T11:04:39;10;10;
74333;PMS5003;62753;40.394;-80.022;2023-04-03T11:07:08;9;8;
74333;PMS5003;62753;40.394;-80.022;2023-04-03T11:09:31;7;6;
74333;PMS5003;62753;40.394;-80.022;2023-04-03T11:11:56;10;9;
74333;PMS5003;62753;40.394;-80.022;2023-04-03T11:14:24;9;9;
74333;PMS5003;62753;40.394;-80.022;2023-04-03T11:16:48;9;7;
74333;PMS5003;62753;40.394;-80.022;2023-04-03T11:19:14;9;7;
74333;PMS5003;62753;40.394;-80.022;2023-04-03T11:21:39;8;7;
74333;PMS5003;62753;40.394;-80.022;2023-04-03T11:24:05;13;10;
74333;PMS5003;62753;40.394;-80.022;2023-04-03T11:26:30;10;9;
74333;PMS5003;62753;40.394;-80.022;2023-04-03T11:29:01;10;10;
74333;PMS5003;62753;40.394;-80.022;2023-04-03T11:31:25;9;8;
74333;PMS5003;62753;40.394;-80.022;2023-04-03T11:33:48;8;7;
74333;PMS5003;62753;40.394;-80.022;2023-04-03T11:36:12;8;8;
74333;PMS5003;62753;40.394;-80.022;2023-04-03T11:38:37;9;9;
74333;PMS5003;62753;40.394;-80.022;2023-04-03T11:41:03;10;8;
74333;PMS5003;62753;40.394;-80.022;2023-04-03T11:43:28;10;9;
74333;PMS5003;62753;40.394;-80.022;2023-04-03T11:45:55;11;10;
74333;PMS5003;62753;40.394;-80.022;2023-04-03T11:50:45;10;8;
74333;PMS5003;62753;40.394;-80.022;2023-04-03T11:55:43;7;7;
74333;PMS5003;62753;40.394;-80.022;2023-04-03T11:58:04;10;9;
74333;PMS5003;62753;40.394;-80.022;2023-04-03T12:02:52;9;9;
74333;PMS5003;62753;40.394;-80.022;2023-04-03T12:05:25;9;9;
74333;PMS5003;62753;40.394;-80.022;2023-04-03T12:07:43;8;7;
74333;PMS5003;62753;40.394;-80.022;2023-04-03T12:10:16;9;9;
74333;PMS5003;62753;40.394;-80.022;2023-04-03T12:12:35;7;7;
74333;PMS5003;62753;40.394;-80.022;2023-04-03T12:17:26;7;6;
74333;PMS5003;62753;40.394;-80.022;2023-04-03T12:19:50;8;7;
74333;PMS5003;62753;40.394;-80.022;2023-04-03T12:22:16;9;6;
74333;PMS5003;62753;40.394;-80.022;2023-04-03T12:24:43;7;5;
74333;PMS5003;62753;40.394;-80.022;2023-04-03T12:27:13;6;6;
74333;PMS5003;62753;40.394;-80.022;2023-04-03T12:29:33;6;5;
74333;PMS5003;62753;40.394;-80.022;2023-04-03T12:32:09;8;6;
74333;PMS5003;62753;40.394;-80.022;2023-04-03T12:34:29;7;6;
74333;PMS5003;62753;40.394;-80.022;2023-04-03T12:36:50;6;5;
74333;PMS5003;62753;40.394;-80.022;2023-04-03T12:39:17;5;5;
74333;PMS5003;62753;40.394;-80.022;2023-04-03T12:41:42;7;7;
74333;PMS5003;62753;40.394;-80.022;2023-04-03T12:44:09;7;6;
74333;PMS5003;62753;40.394;-80.022;2023-04-03T12:46:34;11;7;
74333;PMS5003;62753;40.394;-80.022;2023-04-03T12:48:56;6;6;
74333;PMS5003;62753;40.394;-80.022;2023-04-03T12:51:22;7;6;
74333;PMS5003;62753;40.394;-80.022;2023-04-03T12:53:47;6;6;
74333;PMS5003;62753;40.394;-80.022;2023-04-03T12:56:19;3;3;
74333;PMS5003;62753;40.394;-80.022;2023-04-03T12:58:38;7;6;
74333;PMS5003;62753;40.394;-80.022;2023-04-03T13:01:03;8;6;
74333;PMS5003;62753;40.394;-80.022;2023-04-03T13:03:28;5;4;
74333;PMS5003;62753;40.394;-80.022;2023-04-03T13:05:54;6;5;
74333;PMS5003;62753;40.394;-80.022;2023-04-03T13:08:19;3;3;
74333;PMS5003;62753;40.394;-80.022;2023-04-03T13:10:47;5;4;
74333;PMS5003;62753;40.394;-80.022;2023-04-03T13:13:10;4;4;
74333;PMS5003;62753;40.394;-80.022;2023-04-03T13:15:40;4;4;
74333;PMS5003;62753;40.394;-80.022;2023-04-03T13:18:01;3;3;
74333;PMS5003;62753;40.394;-80.022;2023-04-03T13:20:27;5;5;
74333;PMS5003;62753;40.394;-80.022;2023-04-03T13:22:53;3;3;
74333;PMS5003;62753;40.394;-80.022;2023-04-03T13:25:17;4;4;
74333;PMS5003;62753;40.394;-80.022;2023-04-03T13:27:42;4;3;
74333;PMS5003;62753;40.394;-80.022;2023-04-03T13:32:33;4;4;
74333;PMS5003;62753;40.394;-80.022;2023-04-03T13:34:58;3;3;
74333;PMS5003;62753;40.394;-80.022;2023-04-03T13:37:24;3;3;
74333;PMS5003;62753;40.394;-80.022;2023-04-03T13:42:16;5;4;
74333;PMS5003;62753;40.394;-80.022;2023-04-03T13:44:39;2;2;
74333;PMS5003;62753;40.394;-80.022;2023-04-03T13:49:33;3;2;
74333;PMS5003;62753;40.394;-80.022;2023-04-03T13:51:55;4;4;
74333;PMS5003;62753;40.394;-80.022;2023-04-03T13:54:22;2;2;
74333;PMS5003;62753;40.394;-80.022;2023-04-03T13:56:46;3;3;
74333;PMS5003;62753;40.394;-80.022;2023-04-03T14:01:40;4;3;
74333;PMS5003;62753;40.394;-80.022;2023-04-03T14:04:09;4;4;
74333;PMS5003;62753;40.394;-80.022;2023-04-03T14:06:27;5;4;
74333;PMS5003;62753;40.394;-80.022;2023-04-03T14:08:52;4;4;
74333;PMS5003;62753;40.394;-80.022;2023-04-03T14:11:18;3;3;
74333;PMS5003;62753;40.394;-80.022;2023-04-03T14:13:42;3;3;
74333;PMS5003;62753;40.394;-80.022;2023-04-03T14:16:07;4;4;
74333;PMS5003;62753;40.394;-80.022;2023-04-03T14:18:33;3;3;
74333;PMS5003;62753;40.394;-80.022;2023-04-03T14:20:58;3;3;
74333;PMS5003;62753;40.394;-80.022;2023-04-03T14:23:23;3;3;
74333;PMS5003;62753;40.394;-80.022;2023-04-03T14:25:48;4;4;
74333;PMS5003;62753;40.394;-80.022;2023-04-03T14:28:15;2;2;
74333;PMS5003;62753;40.394;-80.022;2023-04-03T14:30:39;3;3;
74333;PMS5003;62753;40.394;-80.022;2023-04-03T14:33:05;3;3;
74333;PMS5003;62753;40.394;-80.022;2023-04-03T14:35:29;4;4;
74333;PMS5003;62753;40.394;-80.022;2023-04-03T14:37:54;4;4;
74333;PMS5003;62753;40.394;-80.022;2023-04-03T14:40:20;4;4;
74333;PMS5003;62753;40.394;-80.022;2023-04-03T14:42:45;3;3;
74333;PMS5003;62753;40.394;-80.022;2023-04-03T14:45:12;2;2;
74333;PMS5003;62753;40.394;-80.022;2023-04-03T14:47:36;4;4;
74333;PMS5003;62753;40.394;-80.022;2023-04-03T14:50:00;4;3;
74333;PMS5003;62753;40.394;-80.022;2023-04-03T14:52:26;5;5;
74333;PMS5003;62753;40.394;-80.022;2023-04-03T14:54:51;4;4;
74333;PMS5003;62753;40.394;-80.022;2023-04-03T14:57:16;1;1;
74333;PMS5003;62753;40.394;-80.022;2023-04-03T14:59:41;2;1;
74333;PMS5003;62753;40.394;-80.022;2023-04-03T15:02:11;4;3;
74333;PMS5003;62753;40.394;-80.022;2023-04-03T15:04:31;3;2;
74333;PMS5003;62753;40.394;-80.022;2023-04-03T15:06:57;3;3;
74333;PMS5003;62753;40.394;-80.022;2023-04-03T15:09:22;4;4;
74333;PMS5003;62753;40.394;-80.022;2023-04-03T15:11:47;4;3;
74333;PMS5003;62753;40.394;-80.022;2023-04-03T15:14:12;5;4;
74333;PMS5003;62753;40.394;-80.022;2023-04-03T15:16:37;2;2;
74333;PMS5003;62753;40.394;-80.022;2023-04-03T15:19:02;4;4;
74333;PMS5003;62753;40.394;-80.022;2023-04-03T15:21:28;4;4;
74333;PMS5003;62753;40.394;-80.022;2023-04-03T15:23:53;4;3;
74333;PMS5003;62753;40.394;-80.022;2023-04-03T15:26:18;5;4;
74333;PMS5003;62753;40.394;-80.022;2023-04-03T15:28:44;3;3;
74333;PMS5003;62753;40.394;-80.022;2023-04-03T15:31:09;2;2;
74333;PMS5003;62753;40.394;-80.022;2023-04-03T15:33:34;4;4;
74333;PMS5003;62753;40.394;-80.022;2023-04-03T15:35:59;4;3;
74333;PMS5003;62753;40.394;-80.022;2023-04-03T15:38:24;4;4;
74333;PMS5003;62753;40.394;-80.022;2023-04-03T15:40:50;2;2;
74333;PMS5003;62753;40.394;-80.022;2023-04-03T15:43:15;3;2;
74333;PMS5003;62753;40.394;-80.022;2023-04-03T15:45:40;2;2;
74333;PMS5003;62753;40.394;-80.022;2023-04-03T15:48:05;5;5;
74333;PMS5003;62753;40.394;-80.022;2023-04-03T15:50:31;4;4;
74333;PMS5003;62753;40.394;-80.022;2023-04-03T15:52:55;4;3;
74333;PMS5003;62753;40.394;-80.022;2023-04-03T15:55:21;3;3;
74333;PMS5003;62753;40.394;-80.022;2023-04-03T15:57:46;4;4;
74333;PMS5003;62753;40.394;-80.022;2023-04-03T16:00:12;2;1;
74333;PMS5003;62753;40.394;-80.022;2023-04-03T16:02:37;4;3;
74333;PMS5003;62753;40.394;-80.022;2023-04-03T16:05:02;4;4;
74333;PMS5003;62753;40.394;-80.022;2023-04-03T16:07:27;4;4;
74333;PMS5003;62753;40.394;-80.022;2023-04-03T16:09:52;4;4;
74333;PMS5003;62753;40.394;-80.022;2023-04-03T16:12:17;4;4;
74333;PMS5003;62753;40.394;-80.022;2023-04-03T16:14:42;3;2;
74333;PMS5003;62753;40.394;-80.022;2023-04-03T16:17:08;3;3;
74333;PMS5003;62753;40.394;-80.022;2023-04-03T16:19:33;2;2;
74333;PMS5003;62753;40.394;-80.022;2023-04-03T16:21:58;3;3;
74333;PMS5003;62753;40.394;-80.022;2023-04-03T16:24:24;4;3;